createdAt,value
2017-12-24T12:35:17.661Z,28.42
2017-12-24T12:37:44.074Z,22.70
2017-12-24T12:40:10.570Z,22.83
2017-12-24T12:42:36.930Z,30.97
2017-12-24T12:45:03.449Z,23.03
2017-12-24T12:47:29.881Z,23.37
2017-12-24T12:49:56.249Z,25.03
2017-12-24T12:52:22.614Z,27.87
2017-12-24T12:54:49.119Z,33.33
2017-12-24T12:57:15.542Z,28.23
2017-12-24T12:59:41.940Z,32.30
2017-12-24T13:02:08.353Z,52.47
2017-12-24T13:04:34.809Z,43.40
2017-12-24T13:07:01.203Z,41.33
2017-12-24T13:09:27.873Z,39.00
2017-12-24T13:11:54.389Z,39.80
2017-12-24T13:14:20.846Z,45.60
2017-12-24T13:16:47.281Z,46.67
2017-12-24T13:19:13.632Z,44.70
2017-12-24T13:21:39.989Z,33.27
2017-12-24T13:24:06.466Z,48.80
2017-12-24T13:26:32.870Z,46.57
2017-12-24T13:28:59.253Z,41.60
2017-12-24T13:31:25.694Z,43.00
2017-12-24T13:33:52.106Z,32.50
2017-12-24T13:36:18.486Z,48.27
2017-12-24T13:38:44.893Z,42.70
2017-12-24T13:41:11.442Z,37.30
2017-12-24T13:43:37.827Z,46.60
2017-12-24T13:46:04.264Z,51.40
2017-12-24T13:48:30.671Z,54.13
2017-12-24T13:50:57.041Z,59.00
2017-12-24T13:53:23.445Z,54.43
2017-12-24T13:55:49.791Z,50.43
2017-12-24T13:58:16.157Z,80.73
2017-12-24T14:00:42.582Z,70.33
2017-12-24T14:03:08.986Z,72.60
2017-12-24T14:05:35.387Z,76.40
2017-12-24T14:08:01.845Z,76.90
2017-12-24T14:10:28.258Z,73.73
2017-12-24T14:12:54.633Z,70.87
2017-12-24T14:15:21.066Z,50.60
2017-12-24T14:17:47.434Z,79.30
2017-12-24T14:20:13.821Z,73.67
2017-12-24T14:22:40.233Z,64.93
2017-12-24T14:25:06.637Z,65.47
2017-12-24T14:27:33.021Z,57.60
2017-12-24T14:29:59.376Z,69.23
2017-12-24T14:32:25.765Z,74.07
2017-12-24T14:34:52.183Z,61.60
2017-12-24T14:37:18.610Z,90.50
2017-12-24T14:39:45.017Z,84.13
2017-12-24T14:42:11.448Z,83.10
2017-12-24T14:44:37.861Z,81.47
2017-12-24T14:47:04.311Z,68.03
2017-12-24T14:49:30.721Z,66.10
2017-12-24T14:51:57.185Z,65.97
2017-12-24T14:54:23.582Z,59.27
2017-12-24T14:56:49.989Z,50.70
2017-12-24T14:59:16.406Z,66.97
2017-12-24T15:01:42.781Z,70.47
2017-12-24T15:04:09.170Z,62.77
2017-12-24T15:06:35.633Z,62.03
2017-12-24T15:09:02.150Z,62.33
2017-12-24T15:11:28.612Z,39.53
2017-12-24T15:13:55.097Z,21.87
2017-12-24T15:16:21.511Z,15.43
2017-12-24T15:18:47.863Z,16.37
2017-12-24T15:21:14.320Z,16.83
2017-12-24T15:23:40.664Z,15.63
2017-12-24T15:26:07.058Z,19.43
2017-12-24T15:28:33.426Z,16.23
2017-12-24T15:30:59.799Z,14.50
2017-12-24T15:33:26.206Z,16.07
2017-12-24T15:35:52.634Z,15.67
2017-12-24T15:38:18.993Z,16.40
2017-12-24T15:40:45.442Z,16.60
2017-12-24T15:43:11.965Z,14.37
2017-12-24T15:45:38.323Z,15.87
2017-12-24T15:48:04.716Z,15.47
2017-12-24T15:50:31.186Z,16.97
2017-12-24T15:52:57.617Z,14.67
2017-12-24T15:55:24.029Z,18.63
2017-12-24T15:57:50.403Z,15.97
2017-12-24T16:00:16.858Z,18.70
2017-12-24T16:02:43.262Z,16.20
2017-12-24T16:05:09.661Z,16.67
2017-12-24T16:07:36.065Z,15.23
2017-12-24T16:10:02.410Z,15.37
2017-12-24T16:12:28.946Z,16.77
2017-12-24T16:14:55.325Z,13.60
2017-12-24T16:17:21.689Z,14.63
2017-12-24T16:19:48.057Z,11.37
2017-12-24T16:22:14.458Z,13.93
2017-12-24T16:24:40.889Z,13.23
2017-12-24T16:27:07.330Z,12.90
2017-12-24T16:29:34.563Z,13.70
2017-12-24T16:32:00.912Z,14.17
2017-12-24T16:34:27.358Z,13.37
2017-12-24T16:36:53.907Z,11.90
2017-12-24T16:39:20.243Z,12.37
2017-12-24T16:41:46.661Z,13.10
2017-12-24T16:44:13.008Z,11.83
2017-12-24T16:46:39.441Z,13.97
2017-12-24T16:49:05.863Z,12.97
2017-12-24T16:51:32.246Z,11.70
2017-12-24T16:53:58.593Z,12.87
2017-12-24T16:56:25.039Z,12.40
2017-12-24T16:58:51.417Z,12.43
2017-12-24T17:01:17.786Z,12.33
2017-12-24T17:03:44.165Z,13.47
2017-12-24T17:06:10.529Z,13.70
2017-12-24T17:08:36.908Z,12.60
2017-12-24T17:11:03.317Z,14.47
2017-12-24T17:13:29.767Z,13.53
2017-12-24T17:15:56.098Z,13.00
2017-12-24T17:18:22.772Z,17.13
2017-12-24T17:20:49.117Z,12.53
2017-12-24T17:23:15.494Z,13.23
2017-12-24T17:25:41.949Z,14.17
2017-12-24T17:28:08.309Z,15.60
2017-12-24T17:30:34.635Z,13.33
2017-12-24T17:33:01.102Z,15.37
2017-12-24T17:35:28.088Z,12.47
2017-12-24T17:37:54.486Z,13.20
2017-12-24T17:40:20.894Z,14.00
2017-12-24T17:42:47.369Z,14.07
2017-12-24T17:45:13.765Z,15.37
2017-12-24T17:47:40.164Z,14.13
2017-12-24T17:50:06.553Z,16.03
2017-12-24T17:52:32.901Z,15.17
2017-12-24T17:54:59.442Z,17.47
2017-12-24T17:57:25.793Z,17.10
2017-12-24T17:59:52.161Z,18.07
2017-12-24T18:02:18.558Z,13.67
2017-12-24T18:04:44.966Z,15.67
2017-12-24T18:07:11.329Z,11.97
2017-12-24T18:09:37.709Z,11.97
2017-12-24T18:12:04.107Z,11.53
2017-12-24T18:14:30.459Z,15.30
2017-12-24T18:16:57.139Z,11.27
2017-12-24T18:19:23.676Z,12.27
2017-12-24T18:21:50.101Z,14.33
2017-12-24T18:24:17.430Z,11.43
2017-12-24T18:26:43.829Z,13.50
2017-12-24T18:29:10.173Z,11.07
2017-12-24T18:31:36.586Z,11.67
2017-12-24T18:34:02.950Z,10.87
2017-12-24T18:36:29.356Z,13.97
2017-12-24T18:38:55.758Z,13.43
2017-12-24T18:41:22.106Z,13.17
2017-12-24T18:43:48.494Z,13.30
2017-12-24T18:46:14.914Z,13.00
2017-12-24T18:48:41.277Z,13.70
2017-12-24T18:51:07.698Z,16.10
2017-12-24T18:53:34.147Z,17.63
2017-12-24T18:56:00.528Z,21.10
2017-12-24T18:58:26.881Z,20.73
2017-12-24T19:00:53.285Z,20.43
2017-12-24T19:03:19.642Z,17.20
2017-12-24T19:05:46.035Z,17.57
2017-12-24T19:08:12.606Z,23.77
2017-12-24T19:10:38.974Z,24.83
2017-12-24T19:13:05.349Z,23.77
2017-12-24T19:15:31.750Z,26.07
2017-12-24T19:17:58.116Z,23.63
2017-12-24T19:20:24.478Z,22.83
2017-12-24T19:22:50.941Z,23.40
2017-12-24T19:25:17.309Z,25.50
2017-12-24T19:27:43.684Z,23.97
2017-12-24T19:30:10.138Z,28.70
2017-12-24T19:32:36.556Z,29.43
2017-12-24T19:35:02.966Z,22.40
2017-12-24T19:37:29.409Z,23.97
2017-12-24T19:39:55.779Z,23.23
2017-12-24T19:42:23.041Z,21.83
2017-12-24T19:44:49.470Z,25.13
2017-12-24T19:47:15.844Z,26.63
2017-12-24T19:49:42.233Z,22.73
2017-12-24T19:52:08.617Z,30.77
2017-12-24T19:54:35.034Z,22.50
2017-12-24T19:57:01.367Z,28.93
2017-12-24T19:59:27.826Z,32.60
2017-12-24T20:01:54.174Z,21.67
2017-12-24T20:04:20.599Z,17.77
2017-12-24T20:06:46.983Z,17.43
2017-12-24T20:09:13.346Z,17.60
2017-12-24T20:11:39.728Z,21.13
2017-12-24T20:14:06.249Z,16.33
2017-12-24T20:16:32.665Z,18.67
2017-12-24T20:18:59.031Z,21.00
2017-12-24T20:21:25.433Z,19.73
2017-12-24T20:23:51.816Z,19.53
2017-12-24T20:26:18.183Z,29.50
2017-12-24T20:28:44.604Z,34.90
2017-12-24T20:31:10.952Z,40.23
2017-12-24T20:33:37.646Z,36.63
2017-12-24T20:36:04.089Z,33.30
2017-12-24T20:38:30.490Z,42.40
2017-12-24T20:40:56.841Z,30.20
2017-12-24T20:43:23.248Z,21.53
2017-12-24T20:45:49.606Z,22.90
2017-12-24T20:48:16.018Z,32.93
2017-12-24T20:50:42.486Z,33.57
2017-12-24T20:53:08.805Z,33.20
2017-12-24T20:55:35.157Z,35.67
2017-12-24T20:58:01.626Z,30.23
2017-12-24T21:00:28.022Z,23.97
2017-12-24T21:02:54.415Z,34.30
2017-12-24T21:05:20.805Z,32.73
2017-12-24T21:07:47.247Z,35.83
2017-12-24T21:10:13.667Z,38.93
2017-12-24T21:12:40.168Z,32.87
2017-12-24T21:15:06.621Z,22.90
2017-12-24T21:17:33.009Z,31.53
2017-12-24T21:19:59.514Z,29.37
2017-12-24T21:22:26.162Z,27.67
2017-12-24T21:24:52.540Z,24.93
2017-12-24T21:27:19.019Z,38.27
2017-12-24T21:29:45.357Z,36.93
2017-12-24T21:32:11.777Z,32.30
2017-12-24T21:34:38.188Z,27.03
2017-12-24T21:37:04.621Z,33.97
2017-12-24T21:39:30.979Z,32.63
2017-12-24T21:41:57.406Z,31.73
2017-12-24T21:44:23.819Z,31.00
2017-12-24T21:46:50.186Z,31.17
2017-12-24T21:49:16.621Z,31.27
2017-12-24T21:51:43.005Z,30.03
2017-12-24T21:54:09.357Z,30.03
2017-12-24T21:56:35.816Z,32.13
2017-12-24T21:59:02.206Z,29.70
2017-12-24T22:01:28.576Z,25.03
2017-12-24T22:03:54.995Z,26.87
2017-12-24T22:06:21.387Z,25.10
2017-12-24T22:08:47.781Z,26.10
2017-12-24T22:11:14.170Z,21.70
2017-12-24T22:13:40.545Z,23.17
2017-12-24T22:16:06.897Z,23.57
2017-12-24T22:18:33.280Z,26.40
2017-12-24T22:20:59.741Z,30.60
2017-12-24T22:23:26.094Z,32.93
2017-12-24T22:25:52.505Z,33.47
2017-12-24T22:28:18.909Z,39.03
2017-12-24T22:30:45.274Z,58.43
2017-12-24T22:33:11.764Z,51.13
2017-12-24T22:35:38.090Z,46.97
2017-12-24T22:38:04.449Z,44.63
2017-12-24T22:40:30.849Z,71.73
2017-12-24T22:42:57.253Z,68.07
2017-12-24T22:45:23.628Z,70.87
2017-12-24T22:47:50.017Z,75.60
2017-12-24T22:50:16.372Z,70.03
2017-12-24T22:52:42.757Z,65.67
2017-12-24T22:55:09.177Z,65.23
2017-12-24T22:57:35.620Z,62.57
2017-12-24T23:00:01.977Z,64.43
2017-12-24T23:02:28.472Z,64.10
2017-12-24T23:04:54.893Z,62.37
2017-12-24T23:07:21.313Z,60.93
2017-12-24T23:09:47.708Z,58.97
2017-12-24T23:12:14.117Z,58.13
2017-12-24T23:14:40.533Z,57.87
2017-12-24T23:17:06.992Z,59.83
2017-12-24T23:19:33.344Z,61.63
2017-12-24T23:21:59.724Z,178.43
2017-12-24T23:24:26.176Z,114.80
2017-12-24T23:26:52.588Z,114.33
2017-12-24T23:29:19.014Z,98.03
2017-12-24T23:31:45.404Z,84.83
2017-12-24T23:34:11.790Z,87.63
2017-12-24T23:36:38.198Z,84.37
2017-12-24T23:39:04.637Z,79.73
2017-12-24T23:41:31.064Z,93.43
2017-12-24T23:43:57.453Z,109.57
2017-12-24T23:46:23.864Z,108.87
2017-12-24T23:48:50.237Z,106.60
2017-12-24T23:51:16.692Z,120.07
2017-12-24T23:53:43.077Z,119.10
2017-12-24T23:56:09.492Z,126.90
2017-12-24T23:58:35.865Z,113.10
